createdAt,value
2019-03-06T00:04:59.290Z,82.24
2019-03-06T00:07:48.081Z,82.27
2019-03-06T00:10:36.901Z,82.20
2019-03-06T00:13:25.696Z,82.08
2019-03-06T00:16:14.512Z,82.02
2019-03-06T00:19:03.320Z,81.96
2019-03-06T00:21:52.130Z,81.80
2019-03-06T00:24:40.924Z,81.95
2019-03-06T00:27:29.738Z,81.90
2019-03-06T00:33:47.326Z,81.79
2019-03-06T00:36:43.749Z,81.53
2019-03-06T00:45:22.732Z,81.76
2019-03-06T00:48:11.541Z,81.74
2019-03-06T00:51:00.342Z,81.66
2019-03-06T00:53:41.856Z,82.00
2019-03-06T00:56:30.646Z,82.35
2019-03-06T00:59:19.463Z,82.75
2019-03-06T01:02:08.329Z,83.68
2019-03-06T01:04:57.143Z,83.58
2019-03-06T01:07:45.939Z,83.17
2019-03-06T01:10:34.821Z,83.65
2019-03-06T01:13:23.624Z,83.84
2019-03-06T01:16:12.443Z,84.08
2019-03-06T01:19:01.245Z,84.62
2019-03-06T01:21:50.061Z,84.46
2019-03-06T01:24:38.851Z,84.22
2019-03-06T01:27:27.735Z,83.88
2019-03-06T01:30:35.867Z,83.53
2019-03-06T01:33:43.691Z,83.23
2019-03-06T01:39:50.582Z,82.81
2019-03-06T01:45:48.791Z,82.94
2019-03-06T01:48:37.566Z,82.55
2019-03-06T01:51:26.388Z,82.53
2019-03-06T01:54:09.647Z,82.13
2019-03-06T01:56:58.463Z,82.02
2019-03-06T01:59:47.257Z,81.90
2019-03-06T02:02:36.116Z,81.73
2019-03-06T02:05:25.123Z,81.27
2019-03-06T02:08:14.345Z,80.54
2019-03-06T02:14:10.972Z,81.08
2019-03-06T02:16:59.785Z,80.60
2019-03-06T02:19:39.755Z,80.58
2019-03-06T02:22:28.645Z,80.46
2019-03-06T02:28:11.831Z,80.93
2019-03-06T02:31:00.652Z,81.05
2019-03-06T02:33:49.454Z,81.32
2019-03-06T02:36:38.275Z,81.07
2019-03-06T02:39:27.073Z,81.15
2019-03-06T02:42:15.884Z,81.35
2019-03-06T02:45:27.333Z,81.28
2019-03-06T02:48:16.153Z,81.29
2019-03-06T02:51:05.031Z,81.07
2019-03-06T02:53:44.854Z,80.85
2019-03-06T02:56:33.658Z,80.80
2019-03-06T03:05:49.886Z,80.91
2019-03-06T03:08:38.694Z,80.53
2019-03-06T03:11:27.529Z,80.69
2019-03-06T03:14:16.316Z,80.56
2019-03-06T03:17:05.130Z,80.34
2019-03-06T03:19:54.008Z,80.44
2019-03-06T03:22:42.818Z,80.58
2019-03-06T03:25:31.788Z,80.57
2019-03-06T03:28:39.882Z,80.35
2019-03-06T03:34:57.270Z,79.83
2019-03-06T03:37:46.075Z,80.07
2019-03-06T03:40:36.626Z,80.58
2019-03-06T03:43:25.444Z,80.82
2019-03-06T03:46:15.981Z,80.86
2019-03-06T03:49:04.784Z,80.65
2019-03-06T03:51:47.840Z,80.85
2019-03-06T03:54:36.633Z,80.61
2019-03-06T03:57:25.455Z,81.75
2019-03-06T04:00:33.570Z,83.29
2019-03-06T04:03:22.396Z,83.57
2019-03-06T04:09:19.096Z,83.42
2019-03-06T04:12:07.881Z,83.04
2019-03-06T04:14:56.704Z,83.05
2019-03-06T04:17:45.498Z,82.61
2019-03-06T04:20:34.393Z,82.11
2019-03-06T04:23:23.193Z,81.79
2019-03-06T04:26:12.009Z,81.21
2019-03-06T04:29:00.807Z,81.46
2019-03-06T04:31:49.625Z,81.11
2019-03-06T04:34:38.466Z,81.08
2019-03-06T04:37:27.357Z,80.84
2019-03-06T04:40:16.291Z,81.48
2019-03-06T04:43:24.203Z,81.56
2019-03-06T04:46:13.093Z,81.65
2019-03-06T04:49:01.912Z,81.81
2019-03-06T04:51:50.778Z,81.61
2019-03-06T04:54:33.176Z,81.30
2019-03-06T04:57:22.039Z,81.75
2019-03-06T05:00:30.188Z,82.32
2019-03-06T05:03:19.000Z,82.37
2019-03-06T05:06:07.795Z,83.12
2019-03-06T05:08:56.619Z,82.84
2019-03-06T05:11:45.418Z,82.64
2019-03-06T05:14:34.310Z,82.28
2019-03-06T05:17:42.131Z,81.75
2019-03-06T05:20:30.944Z,81.59
2019-03-06T05:23:19.776Z,81.22
2019-03-06T05:26:08.599Z,81.11
2019-03-06T05:28:57.445Z,81.16
2019-03-06T05:32:25.090Z,81.28
2019-03-06T05:35:52.592Z,81.45
2019-03-06T05:39:20.138Z,81.34
2019-03-06T05:42:08.994Z,83.53
2019-03-06T05:44:59.502Z,83.23
2019-03-06T05:47:48.318Z,83.16
2019-03-06T05:50:38.859Z,82.95
2019-03-06T05:53:20.941Z,83.34
2019-03-06T05:56:09.763Z,83.33
2019-03-06T05:58:58.611Z,83.17
2019-03-06T06:01:47.418Z,83.17
2019-03-06T06:04:36.217Z,84.22
2019-03-06T06:07:25.029Z,84.11
2019-03-06T06:10:33.164Z,83.48
2019-03-06T06:13:21.967Z,83.23
2019-03-06T06:16:10.781Z,82.70
2019-03-06T06:19:01.623Z,82.24
2019-03-06T06:22:09.141Z,82.40
2019-03-06T06:24:50.952Z,82.37
2019-03-06T06:27:39.814Z,82.28
2019-03-06T06:30:28.731Z,82.28
2019-03-06T06:33:17.542Z,81.96
2019-03-06T06:36:25.380Z,82.43
2019-03-06T06:39:14.184Z,82.23
2019-03-06T06:42:03.006Z,82.28
2019-03-06T06:48:19.746Z,82.34
2019-03-06T06:51:29.453Z,82.20
2019-03-06T06:54:15.803Z,81.76
2019-03-06T06:57:43.286Z,82.35
2019-03-06T07:04:49.433Z,82.72
2019-03-06T07:10:47.471Z,84.01
2019-03-06T07:13:55.296Z,83.90
2019-03-06T07:17:03.135Z,83.92
2019-03-06T07:26:09.038Z,84.57
2019-03-06T07:29:16.860Z,84.72
2019-03-06T07:32:24.767Z,84.08
2019-03-06T07:35:54.744Z,83.67
2019-03-06T07:42:00.163Z,83.26
2019-03-06T07:45:46.710Z,83.23
2019-03-06T07:48:54.595Z,82.71
2019-03-06T07:52:02.439Z,82.35
2019-03-06T07:55:10.287Z,82.26
2019-03-06T07:58:37.867Z,81.19
2019-03-06T08:01:47.596Z,80.81
2019-03-06T08:04:36.424Z,80.07
2019-03-06T08:07:25.324Z,79.37
2019-03-06T08:16:59.115Z,78.81
2019-03-06T08:19:48.075Z,78.48
2019-03-06T08:22:56.177Z,77.84
2019-03-06T08:25:57.109Z,77.41
2019-03-06T08:28:45.923Z,76.92
2019-03-06T08:34:30.681Z,76.50
2019-03-06T08:37:19.484Z,75.99
2019-03-06T08:40:29.218Z,76.07
2019-03-06T08:43:18.019Z,75.60
2019-03-06T08:46:25.866Z,75.58
2019-03-06T08:49:33.690Z,75.36
2019-03-06T08:52:41.528Z,75.67
2019-03-06T08:55:49.425Z,75.13
2019-03-06T08:58:57.266Z,74.37
2019-03-06T09:02:05.404Z,75.06
2019-03-06T09:05:13.514Z,74.86
2019-03-06T09:08:21.411Z,74.93
2019-03-06T09:11:29.258Z,73.94
2019-03-06T09:17:46.732Z,72.74
2019-03-06T09:20:54.558Z,72.18
2019-03-06T09:24:02.391Z,71.81
2019-03-06T09:30:19.636Z,72.05
2019-03-06T09:33:27.405Z,71.51
2019-03-06T09:36:35.247Z,71.88
2019-03-06T09:39:43.076Z,70.92
2019-03-06T09:42:50.987Z,71.45
2019-03-06T09:45:58.837Z,71.59
2019-03-06T09:49:11.538Z,70.17
2019-03-06T09:55:12.182Z,68.93
2019-03-06T09:58:20.260Z,67.78
2019-03-06T10:01:08.857Z,67.60
2019-03-06T10:04:16.699Z,66.69
2019-03-06T10:07:24.691Z,67.60
2019-03-06T10:10:32.776Z,67.47
2019-03-06T10:16:50.000Z,67.80
2019-03-06T10:19:58.102Z,68.39
2019-03-06T10:22:48.832Z,67.12
2019-03-06T10:25:37.451Z,67.33
2019-03-06T10:28:27.487Z,66.19
2019-03-06T10:31:29.211Z,67.46
2019-03-06T10:34:18.025Z,65.58
2019-03-06T10:39:55.669Z,65.55
2019-03-06T10:42:44.562Z,66.21
2019-03-06T10:45:52.461Z,64.98
2019-03-06T10:48:41.402Z,66.14
2019-03-06T10:51:31.940Z,64.38
2019-03-06T10:54:13.852Z,64.32
2019-03-06T10:57:02.764Z,63.11
2019-03-06T10:59:53.372Z,62.29
2019-03-06T11:02:42.233Z,61.80
2019-03-06T11:08:30.371Z,60.46
2019-03-06T11:11:19.168Z,59.76
2019-03-06T11:14:28.912Z,59.48
2019-03-06T11:17:17.784Z,58.69
2019-03-06T11:20:29.480Z,57.93
2019-03-06T11:23:37.372Z,57.52
2019-03-06T11:26:26.362Z,57.18
2019-03-06T11:29:15.224Z,57.35
2019-03-06T11:35:40.209Z,56.83
2019-03-06T11:38:30.923Z,57.29
2019-03-06T11:41:19.709Z,57.65
2019-03-06T11:44:08.600Z,57.44
2019-03-06T11:46:57.395Z,57.53
2019-03-06T11:50:05.249Z,58.06
2019-03-06T11:52:54.111Z,56.46
2019-03-06T11:55:35.654Z,56.99
2019-03-06T11:58:24.490Z,56.75
2019-03-06T12:07:32.515Z,55.08
2019-03-06T12:10:21.401Z,54.74
2019-03-06T12:13:31.165Z,54.76
2019-03-06T12:16:20.102Z,54.72
2019-03-06T12:19:08.999Z,54.89
2019-03-06T12:21:57.916Z,54.73
2019-03-06T12:24:46.730Z,52.83
2019-03-06T12:30:43.772Z,51.72
2019-03-06T12:33:32.576Z,51.75
2019-03-06T12:36:21.563Z,51.43
2019-03-06T12:39:10.392Z,51.39
2019-03-06T12:41:59.260Z,50.85
2019-03-06T12:44:48.077Z,49.30
2019-03-06T12:47:36.898Z,49.57
2019-03-06T12:50:54.002Z,49.69
2019-03-06T12:53:35.630Z,49.70
2019-03-06T12:56:18.122Z,49.68
2019-03-06T12:59:07.016Z,50.19
2019-03-06T13:01:55.906Z,49.03
2019-03-06T13:04:44.710Z,48.48
2019-03-06T13:07:33.536Z,48.59
2019-03-06T13:10:22.639Z,46.48
2019-03-06T13:13:11.457Z,46.07
2019-03-06T13:16:00.358Z,46.58
2019-03-06T13:18:50.872Z,46.71
2019-03-06T13:21:41.465Z,47.52
2019-03-06T13:27:24.645Z,46.83
2019-03-06T13:36:41.799Z,44.63
2019-03-06T13:39:30.693Z,42.88
2019-03-06T13:45:28.977Z,43.67
2019-03-06T13:48:17.783Z,44.18
2019-03-06T13:51:06.677Z,45.91
2019-03-06T13:53:56.660Z,46.54
2019-03-06T13:56:39.039Z,46.56
2019-03-06T13:59:28.014Z,47.70
2019-03-06T14:02:16.903Z,47.97
2019-03-06T14:08:25.919Z,48.28
2019-03-06T14:11:14.794Z,48.07
2019-03-06T14:14:03.613Z,48.95
2019-03-06T14:16:52.410Z,49.32
2019-03-06T14:19:41.231Z,50.43
2019-03-06T14:22:30.208Z,50.97
2019-03-06T14:28:15.923Z,51.64
2019-03-06T14:31:06.198Z,51.67
2019-03-06T14:33:55.976Z,51.66
2019-03-06T14:36:46.449Z,50.13
2019-03-06T14:39:35.317Z,50.19
2019-03-06T14:42:24.202Z,49.79
2019-03-06T14:45:33.932Z,48.66
2019-03-06T14:48:22.739Z,49.20
2019-03-06T14:51:11.556Z,48.50
2019-03-06T14:54:00.381Z,48.80
2019-03-06T14:56:43.620Z,48.49
2019-03-06T14:59:32.441Z,47.50
2019-03-06T15:02:21.241Z,47.53
2019-03-06T15:05:10.059Z,47.74
2019-03-06T15:07:58.935Z,47.59
2019-03-06T15:10:47.758Z,47.52
2019-03-06T15:13:36.585Z,47.86
2019-03-06T15:16:25.398Z,47.26
2019-03-06T15:19:14.209Z,47.59
2019-03-06T15:22:03.010Z,47.09
2019-03-06T15:24:51.834Z,47.92
2019-03-06T15:27:42.350Z,48.03
2019-03-06T15:30:31.177Z,47.73
2019-03-06T15:33:20.119Z,47.71
2019-03-06T15:36:08.915Z,47.97
2019-03-06T15:38:57.731Z,48.72
2019-03-06T15:41:46.530Z,48.07
2019-03-06T15:44:35.426Z,47.91
2019-03-06T15:47:43.246Z,47.98
2019-03-06T15:50:51.238Z,47.88
2019-03-06T15:56:47.917Z,48.24
2019-03-06T15:59:36.718Z,47.74
2019-03-06T16:08:56.544Z,49.16
2019-03-06T16:11:45.347Z,48.87
2019-03-06T16:14:35.897Z,49.34
2019-03-06T16:17:24.699Z,48.62
2019-03-06T16:20:36.151Z,49.00
2019-03-06T16:23:24.974Z,49.05
2019-03-06T16:26:13.780Z,50.02
2019-03-06T16:29:02.602Z,50.08
2019-03-06T16:31:51.397Z,51.87
2019-03-06T16:34:40.217Z,53.62
2019-03-06T16:37:29.048Z,53.22
2019-03-06T16:40:37.166Z,54.55
2019-03-06T16:43:25.979Z,55.46
2019-03-06T16:46:14.808Z,55.94
2019-03-06T16:49:03.621Z,56.44
2019-03-06T16:51:52.508Z,55.61
2019-03-06T16:54:41.384Z,56.15
2019-03-06T16:57:23.900Z,57.07
2019-03-06T17:00:32.664Z,57.97
2019-03-06T17:03:21.489Z,57.34
2019-03-06T17:06:29.309Z,58.06
2019-03-06T17:12:14.682Z,58.75
2019-03-06T17:18:37.174Z,58.82
2019-03-06T17:21:26.062Z,58.77
2019-03-06T17:27:24.411Z,58.63
2019-03-06T17:30:34.127Z,58.69
2019-03-06T17:33:43.906Z,58.48
2019-03-06T17:36:32.811Z,58.29
2019-03-06T17:39:21.694Z,58.46
2019-03-06T17:42:10.667Z,58.72
2019-03-06T17:44:59.516Z,58.46
2019-03-06T17:47:48.405Z,58.70
2019-03-06T17:50:58.125Z,58.67
2019-03-06T17:53:46.942Z,58.68
2019-03-06T17:56:35.833Z,59.15
2019-03-06T17:59:24.639Z,58.09
2019-03-06T18:05:08.073Z,57.62
2019-03-06T18:07:56.948Z,57.38
2019-03-06T18:10:45.772Z,57.30
2019-03-06T18:13:36.300Z,56.57
2019-03-06T18:16:25.118Z,56.65
2019-03-06T18:19:15.647Z,55.96
2019-03-06T18:22:04.461Z,56.29
2019-03-06T18:24:53.392Z,55.69
2019-03-06T18:27:42.391Z,55.10
2019-03-06T18:30:31.341Z,54.80
2019-03-06T18:33:20.340Z,53.65
2019-03-06T18:36:09.212Z,53.55
2019-03-06T18:38:58.082Z,53.50
2019-03-06T18:41:46.989Z,53.37
2019-03-06T18:44:35.877Z,53.59
2019-03-06T18:47:24.696Z,52.84
2019-03-06T18:50:34.562Z,52.35
2019-03-06T18:53:23.364Z,53.07
2019-03-06T18:56:12.185Z,52.60
2019-03-06T18:58:54.710Z,53.61
2019-03-06T19:01:43.720Z,53.32
2019-03-06T19:04:32.523Z,53.15
2019-03-06T19:13:36.336Z,54.01
2019-03-06T19:16:25.138Z,54.18
2019-03-06T19:19:13.976Z,54.53
2019-03-06T19:22:02.868Z,55.01
2019-03-06T19:24:51.703Z,55.29
2019-03-06T19:27:40.819Z,55.67
2019-03-06T19:30:29.643Z,56.91
2019-03-06T19:33:18.483Z,58.07
2019-03-06T19:36:07.445Z,58.39
2019-03-06T19:38:56.711Z,59.01
2019-03-06T19:41:45.578Z,58.98
2019-03-06T19:44:34.398Z,59.47
2019-03-06T19:47:23.222Z,59.95
2019-03-06T19:50:31.391Z,60.26
2019-03-06T19:53:20.249Z,61.17
2019-03-06T19:56:01.630Z,61.21
2019-03-06T19:58:50.460Z,61.27
2019-03-06T20:01:39.261Z,61.52
2019-03-06T20:04:28.224Z,61.33
2019-03-06T20:07:17.084Z,61.11
2019-03-06T20:13:21.846Z,61.13
2019-03-06T20:16:10.659Z,61.48
2019-03-06T20:18:59.491Z,62.61
2019-03-06T20:21:48.297Z,63.09
2019-03-06T20:24:37.195Z,63.55
2019-03-06T20:27:26.074Z,63.79
2019-03-06T20:30:37.546Z,63.94
2019-03-06T20:33:26.433Z,64.34
2019-03-06T20:36:07.814Z,64.13
2019-03-06T20:38:56.938Z,64.03
2019-03-06T20:41:47.524Z,64.25
2019-03-06T20:44:36.367Z,65.08
2019-03-06T20:47:25.164Z,65.60
2019-03-06T20:50:34.926Z,66.12
2019-03-06T20:53:23.722Z,66.42
2019-03-06T20:56:12.557Z,66.97
2019-03-06T21:02:09.116Z,67.37
2019-03-06T21:04:57.952Z,68.15
2019-03-06T21:07:47.195Z,68.39
2019-03-06T21:10:36.013Z,68.75
2019-03-06T21:13:24.834Z,68.82
2019-03-06T21:16:13.641Z,68.62
2019-03-06T21:19:04.257Z,68.58
2019-03-06T21:22:12.086Z,69.07
2019-03-06T21:25:00.911Z,69.41
2019-03-06T21:27:49.713Z,69.91
2019-03-06T21:33:34.200Z,69.94
2019-03-06T21:36:15.674Z,69.71
2019-03-06T21:42:32.975Z,69.74
2019-03-06T21:45:21.843Z,69.83
2019-03-06T21:48:10.740Z,69.64
2019-03-06T21:54:07.326Z,69.41
2019-03-06T21:56:57.856Z,69.36
2019-03-06T21:59:46.702Z,69.46
2019-03-06T22:02:35.489Z,69.36
2019-03-06T22:05:24.323Z,69.21
2019-03-06T22:08:13.198Z,68.93
2019-03-06T22:11:02.022Z,68.86
2019-03-06T22:13:50.832Z,68.49
2019-03-06T22:16:39.651Z,68.65
2019-03-06T22:19:28.474Z,68.82
2019-03-06T22:22:17.276Z,69.08
2019-03-06T22:25:27.014Z,68.94
2019-03-06T22:28:15.815Z,69.08
2019-03-06T22:31:04.641Z,69.28
2019-03-06T22:33:53.560Z,69.36
2019-03-06T22:36:35.574Z,69.47
2019-03-06T22:39:24.380Z,69.78
2019-03-06T22:42:13.204Z,69.63
2019-03-06T22:45:02.010Z,70.84
2019-03-06T22:47:50.834Z,71.33
2019-03-06T22:50:39.639Z,71.31
2019-03-06T22:53:28.461Z,71.24
2019-03-06T22:56:17.281Z,71.42
2019-03-06T22:59:06.107Z,71.43
2019-03-06T23:01:55.074Z,71.29
2019-03-06T23:04:43.904Z,71.51
2019-03-06T23:07:32.711Z,71.66
2019-03-06T23:10:23.272Z,71.75
2019-03-06T23:13:12.366Z,71.63
2019-03-06T23:16:02.900Z,71.22
2019-03-06T23:18:51.786Z,71.43
2019-03-06T23:21:42.306Z,71.40
2019-03-06T23:24:31.133Z,71.42
2019-03-06T23:27:19.930Z,71.48
2019-03-06T23:30:29.672Z,71.71
2019-03-06T23:33:18.473Z,71.57
2019-03-06T23:36:07.301Z,71.79
2019-03-06T23:38:48.489Z,72.43
2019-03-06T23:41:37.312Z,72.14
2019-03-06T23:44:26.121Z,72.09
2019-03-06T23:47:15.009Z,71.93
2019-03-06T23:50:24.723Z,72.11
2019-03-06T23:56:13.061Z,70.67
2019-03-06T23:59:02.343Z,70.70
